createdAt,value
2018-06-25T00:00:00.744Z,1007.43
2018-06-25T00:01:00.761Z,1007.45
2018-06-25T00:02:00.789Z,1007.43
2018-06-25T00:03:00.799Z,1007.4
2018-06-25T00:04:00.820Z,1007.39
2018-06-25T00:05:00.840Z,1007.41
2018-06-25T00:06:00.866Z,1007.4
2018-06-25T00:07:00.879Z,1007.39
2018-06-25T00:08:00.903Z,1007.39
2018-06-25T00:09:00.921Z,1007.42
2018-06-25T00:10:00.942Z,1007.39
2018-06-25T00:11:00.958Z,1007.38
2018-06-25T00:12:00.979Z,1007.37
2018-06-25T00:13:00.998Z,1007.39
2018-06-25T00:14:01.017Z,1007.4
2018-06-25T00:15:01.037Z,1007.4
2018-06-25T00:16:01.065Z,1007.42
2018-06-25T00:17:01.079Z,1007.43
2018-06-25T00:18:01.106Z,1007.44
2018-06-25T00:19:01.114Z,1007.5
2018-06-25T00:20:01.141Z,1007.53
2018-06-25T00:21:01.155Z,1007.49
2018-06-25T00:22:01.181Z,1007.48
2018-06-25T00:23:01.194Z,1007.45
2018-06-25T00:24:01.214Z,1007.49
2018-06-25T00:25:01.233Z,1007.48
2018-06-25T00:26:01.256Z,1007.46
2018-06-25T00:27:01.278Z,1007.44
2018-06-25T00:28:01.300Z,1007.46
2018-06-25T00:29:01.312Z,1007.46
2018-06-25T00:30:01.333Z,1007.46
2018-06-25T00:31:01.354Z,1007.43
2018-06-25T00:32:01.372Z,1007.44
2018-06-25T00:33:01.389Z,1007.43
2018-06-25T00:34:01.411Z,1007.46
2018-06-25T00:35:01.431Z,1007.44
2018-06-25T00:36:01.451Z,1007.45
2018-06-25T00:37:01.468Z,1007.42
2018-06-25T00:38:01.489Z,1007.43
2018-06-25T00:39:01.511Z,1007.42
2018-06-25T00:40:01.528Z,1007.4
2018-06-25T00:41:01.545Z,1007.43
2018-06-25T00:42:01.567Z,1007.44
2018-06-25T00:43:01.589Z,1007.44
2018-06-25T00:44:01.606Z,1007.45
2018-06-25T00:45:01.628Z,1007.42
2018-06-25T00:46:01.645Z,1007.45
2018-06-25T00:47:01.668Z,1007.44
2018-06-25T00:48:01.683Z,1007.43
2018-06-25T00:49:01.702Z,1007.4
2018-06-25T00:50:01.722Z,1007.42
2018-06-25T00:51:01.741Z,1007.42
2018-06-25T00:52:01.762Z,1007.41
2018-06-25T00:53:01.782Z,1007.4
2018-06-25T00:54:01.801Z,1007.41
2018-06-25T00:55:01.820Z,1007.39
2018-06-25T00:56:01.839Z,1007.41
2018-06-25T00:57:01.861Z,1007.43
2018-06-25T00:58:01.879Z,1007.43
2018-06-25T00:59:01.898Z,1007.39
2018-06-25T01:00:01.919Z,1007.43
2018-06-25T01:01:01.940Z,1007.39
2018-06-25T01:02:01.959Z,1007.42
2018-06-25T01:03:01.977Z,1007.38
2018-06-25T01:04:01.996Z,1007.42
2018-06-25T01:05:02.016Z,1007.41
2018-06-25T01:06:02.104Z,1007.4
2018-06-25T01:07:02.057Z,1007.39
2018-06-25T01:08:02.075Z,1007.4
2018-06-25T01:09:02.094Z,1007.41
2018-06-25T01:10:02.114Z,1007.4
2018-06-25T01:11:02.134Z,1007.42
2018-06-25T01:12:02.153Z,1007.42
2018-06-25T01:13:02.172Z,1007.43
2018-06-25T01:14:02.192Z,1007.4
2018-06-25T01:15:02.213Z,1007.4
2018-06-25T01:16:02.229Z,1007.41
2018-06-25T01:17:02.251Z,1007.41
2018-06-25T01:18:02.270Z,1007.46
2018-06-25T01:19:02.288Z,1007.45
2018-06-25T01:20:02.309Z,1007.45
2018-06-25T01:21:02.330Z,1007.48
2018-06-25T01:22:02.349Z,1007.49
2018-06-25T01:23:02.368Z,1007.49
2018-06-25T01:24:02.392Z,1007.47
2018-06-25T01:25:02.407Z,1007.5
2018-06-25T01:26:02.429Z,1007.51
2018-06-25T01:27:02.445Z,1007.53
2018-06-25T01:28:02.465Z,1007.54
2018-06-25T01:29:02.485Z,1007.53
2018-06-25T01:30:02.506Z,1007.53
2018-06-25T01:31:02.523Z,1007.52
2018-06-25T01:32:02.545Z,1007.54
2018-06-25T01:33:02.564Z,1007.49
2018-06-25T01:34:02.584Z,1007.57
2018-06-25T01:35:02.602Z,1007.53
2018-06-25T01:36:02.623Z,1007.55
2018-06-25T01:37:02.642Z,1007.56
2018-06-25T01:38:02.660Z,1007.51
2018-06-25T01:39:02.680Z,1007.58
2018-06-25T01:40:02.699Z,1007.53
2018-06-25T01:41:02.719Z,1007.55
2018-06-25T01:42:02.739Z,1007.57
2018-06-25T01:43:02.760Z,1007.58
2018-06-25T01:44:02.779Z,1007.58
2018-06-25T01:45:02.805Z,1007.58
2018-06-25T01:46:02.818Z,1007.57
2018-06-25T01:47:02.840Z,1007.58
2018-06-25T01:48:02.857Z,1007.56
2018-06-25T01:49:02.876Z,1007.58
2018-06-25T01:50:02.895Z,1007.59
2018-06-25T01:51:02.916Z,1007.57
2018-06-25T01:52:02.935Z,1007.6
2018-06-25T01:53:02.954Z,1007.61
2018-06-25T01:54:02.975Z,1007.63
2018-06-25T01:55:02.993Z,1007.61
2018-06-25T01:56:03.015Z,1007.59
2018-06-25T01:57:03.038Z,1007.6
2018-06-25T01:58:03.053Z,1007.6
2018-06-25T01:59:03.071Z,1007.6
2018-06-25T02:00:03.090Z,1007.56
2018-06-25T02:01:03.109Z,1007.54
2018-06-25T02:02:03.131Z,1007.58
2018-06-25T02:03:03.149Z,1007.57
2018-06-25T02:04:03.168Z,1007.52
2018-06-25T02:05:03.189Z,1007.55
2018-06-25T02:06:03.208Z,1007.52
2018-06-25T02:07:03.228Z,1007.51
2018-06-25T02:08:03.248Z,1007.52
2018-06-25T02:09:03.266Z,1007.53
2018-06-25T02:10:03.293Z,1007.57
2018-06-25T02:11:03.307Z,1007.54
2018-06-25T02:12:03.326Z,1007.52
2018-06-25T02:13:03.343Z,1007.5
2018-06-25T02:14:03.362Z,1007.49
2018-06-25T02:15:03.381Z,1007.48
2018-06-25T02:16:03.405Z,1007.48
2018-06-25T02:17:03.422Z,1007.49
2018-06-25T02:18:03.442Z,1007.51
2018-06-25T02:19:03.460Z,1007.47
2018-06-25T02:20:03.480Z,1007.51
2018-06-25T02:21:03.500Z,1007.53
2018-06-25T02:22:03.518Z,1007.52
2018-06-25T02:23:03.539Z,1007.52
2018-06-25T02:24:03.559Z,1007.52
2018-06-25T02:25:03.577Z,1007.47
2018-06-25T02:26:03.597Z,1007.49
2018-06-25T02:27:03.619Z,1007.54
2018-06-25T02:28:03.636Z,1007.5
2018-06-25T02:29:03.654Z,1007.54
2018-06-25T02:30:03.679Z,1007.52
2018-06-25T02:31:03.696Z,1007.53
2018-06-25T02:32:03.716Z,1007.49
2018-06-25T02:33:03.815Z,1007.52
2018-06-25T02:34:03.753Z,1007.53
2018-06-25T02:35:03.776Z,1007.49
2018-06-25T02:36:03.792Z,1007.55
2018-06-25T02:37:03.813Z,1007.56
2018-06-25T02:38:03.831Z,1007.57
2018-06-25T02:39:03.857Z,1007.53
2018-06-25T02:40:03.868Z,1007.56
2018-06-25T02:41:03.888Z,1007.56
2018-06-25T02:42:03.912Z,1007.56
2018-06-25T02:43:03.929Z,1007.58
2018-06-25T02:44:03.948Z,1007.59
2018-06-25T02:45:03.966Z,1007.59
2018-06-25T02:46:03.991Z,1007.58
2018-06-25T02:47:04.006Z,1007.6
2018-06-25T02:48:04.040Z,1007.59
2018-06-25T02:49:04.046Z,1007.55
2018-06-25T02:50:04.066Z,1007.61
2018-06-25T02:51:04.084Z,1007.62
2018-06-25T02:52:04.108Z,1007.6
2018-06-25T02:53:04.125Z,1007.67
2018-06-25T02:54:04.141Z,1007.63
2018-06-25T02:55:04.169Z,1007.67
2018-06-25T02:56:04.184Z,1007.7
2018-06-25T02:57:04.200Z,1007.69
2018-06-25T02:58:04.219Z,1007.7
2018-06-25T02:59:04.240Z,1007.71
2018-06-25T03:00:04.259Z,1007.69
2018-06-25T03:01:04.281Z,1007.73
2018-06-25T03:02:04.298Z,1007.74
2018-06-25T03:03:04.319Z,1007.72
2018-06-25T03:04:04.336Z,1007.77
2018-06-25T03:05:04.356Z,1007.74
2018-06-25T03:06:04.379Z,1007.76
2018-06-25T03:07:04.395Z,1007.79
2018-06-25T03:08:04.419Z,1007.79
2018-06-25T03:09:04.433Z,1007.8
2018-06-25T03:10:04.452Z,1007.8
2018-06-25T03:11:04.474Z,1007.77
2018-06-25T03:12:04.497Z,1007.79
2018-06-25T03:13:04.513Z,1007.72
2018-06-25T03:14:04.529Z,1007.73
2018-06-25T03:15:04.551Z,1007.72
2018-06-25T03:16:04.571Z,1007.74
2018-06-25T03:17:04.592Z,1007.71
2018-06-25T03:18:04.610Z,1007.75
2018-06-25T03:19:04.628Z,1007.74
2018-06-25T03:20:04.648Z,1007.78
2018-06-25T03:21:04.667Z,1007.78
2018-06-25T03:22:04.686Z,1007.77
2018-06-25T03:23:04.706Z,1007.78
2018-06-25T03:24:04.724Z,1007.81
2018-06-25T03:25:04.745Z,1007.8
2018-06-25T03:26:04.763Z,1007.78
2018-06-25T03:27:04.783Z,1007.76
2018-06-25T03:28:04.801Z,1007.8
2018-06-25T03:29:04.823Z,1007.74
2018-06-25T03:30:04.844Z,1007.79
2018-06-25T03:31:04.866Z,1007.76
2018-06-25T03:32:04.882Z,1007.8
2018-06-25T03:33:04.900Z,1007.73
2018-06-25T03:34:04.919Z,1007.79
2018-06-25T03:35:04.937Z,1007.75
2018-06-25T03:36:04.957Z,1007.78
2018-06-25T03:37:04.977Z,1007.75
2018-06-25T03:38:04.996Z,1007.73
2018-06-25T03:39:05.017Z,1007.72
2018-06-25T03:40:05.042Z,1007.75
2018-06-25T03:41:05.055Z,1007.75
2018-06-25T03:42:05.074Z,1007.75
2018-06-25T03:43:05.093Z,1007.78
2018-06-25T03:44:05.113Z,1007.82
2018-06-25T03:45:05.137Z,1007.81
2018-06-25T03:46:05.151Z,1007.8
2018-06-25T03:47:05.171Z,1007.85
2018-06-25T03:48:05.194Z,1007.83
2018-06-25T03:49:05.208Z,1007.85
2018-06-25T03:50:05.228Z,1007.84
2018-06-25T03:51:05.252Z,1007.86
2018-06-25T03:52:05.268Z,1007.86
2018-06-25T03:53:05.287Z,1007.84
2018-06-25T03:54:05.350Z,1007.89
2018-06-25T03:55:05.326Z,1007.91
2018-06-25T03:56:05.348Z,1007.9
2018-06-25T03:57:05.363Z,1007.91
2018-06-25T03:58:05.384Z,1007.92
2018-06-25T03:59:05.403Z,1007.94
2018-06-25T04:00:05.422Z,1007.96
2018-06-25T04:01:05.492Z,1007.98
2018-06-25T04:02:05.463Z,1008
2018-06-25T04:03:05.482Z,1008.02
2018-06-25T04:04:05.499Z,1008.02
2018-06-25T04:05:05.522Z,1008.06
2018-06-25T04:06:05.542Z,1008.06
2018-06-25T04:07:05.559Z,1008.08
2018-06-25T04:08:05.579Z,1008.12
2018-06-25T04:09:05.596Z,1008.16
2018-06-25T04:10:05.618Z,1008.15
2018-06-25T04:11:05.639Z,1008.12
2018-06-25T04:12:05.728Z,1008.18
2018-06-25T04:13:05.679Z,1008.17
2018-06-25T04:14:05.696Z,1008.18
2018-06-25T04:15:05.717Z,1008.2
2018-06-25T04:16:05.733Z,1008.12
2018-06-25T04:17:05.752Z,1008.21
2018-06-25T04:18:05.777Z,1008.15
2018-06-25T04:19:05.791Z,1008.22
2018-06-25T04:20:05.811Z,1008.2
2018-06-25T04:21:05.830Z,1008.25
2018-06-25T04:22:05.850Z,1008.28
2018-06-25T04:23:05.869Z,1008.28
2018-06-25T04:24:05.888Z,1008.28
2018-06-25T04:25:05.909Z,1008.27
2018-06-25T04:26:05.927Z,1008.25
2018-06-25T04:27:05.947Z,1008.3
2018-06-25T04:28:05.967Z,1008.28
2018-06-25T04:29:05.986Z,1008.36
2018-06-25T04:30:06.006Z,1008.36
2018-06-25T04:31:06.024Z,1008.39
2018-06-25T04:32:06.045Z,1008.42
2018-06-25T04:33:06.064Z,1008.39
2018-06-25T04:34:06.083Z,1008.46
2018-06-25T04:35:06.102Z,1008.44
2018-06-25T04:36:06.123Z,1008.44
2018-06-25T04:37:06.146Z,1008.45
2018-06-25T04:38:06.159Z,1008.49
2018-06-25T04:39:06.180Z,1008.5
2018-06-25T04:40:06.201Z,1008.49
2018-06-25T04:41:06.218Z,1008.49
2018-06-25T04:42:06.238Z,1008.49
2018-06-25T04:43:06.258Z,1008.54
2018-06-25T04:44:06.276Z,1008.5
2018-06-25T04:45:06.297Z,1008.52
2018-06-25T04:46:06.316Z,1008.51
2018-06-25T04:47:06.336Z,1008.5
2018-06-25T04:48:06.365Z,1008.52
2018-06-25T04:49:06.376Z,1008.5
2018-06-25T04:50:06.394Z,1008.53
2018-06-25T04:51:06.417Z,1008.53
2018-06-25T04:52:06.433Z,1008.5
2018-06-25T04:53:06.453Z,1008.5
2018-06-25T04:54:06.473Z,1008.56
2018-06-25T04:55:06.492Z,1008.57
2018-06-25T04:56:06.511Z,1008.59
2018-06-25T04:57:06.531Z,1008.61
2018-06-25T04:58:06.552Z,1008.61
2018-06-25T04:59:06.569Z,1008.62
2018-06-25T05:00:06.589Z,1008.64
2018-06-25T05:01:06.611Z,1008.65
2018-06-25T05:02:06.666Z,1008.63
2018-06-25T05:03:06.648Z,1008.63
2018-06-25T05:04:06.670Z,1008.67
2018-06-25T05:05:06.688Z,1008.7
2018-06-25T05:06:06.709Z,1008.68
2018-06-25T05:07:06.725Z,1008.68
2018-06-25T05:08:06.746Z,1008.67
2018-06-25T05:09:06.768Z,1008.67
2018-06-25T05:10:06.787Z,1008.73
2018-06-25T05:11:06.806Z,1008.71
2018-06-25T05:12:06.825Z,1008.71
2018-06-25T05:13:06.843Z,1008.7
2018-06-25T05:14:06.864Z,1008.69
2018-06-25T05:15:06.882Z,1008.71
2018-06-25T05:16:06.903Z,1008.67
2018-06-25T05:17:06.928Z,1008.71
2018-06-25T05:18:06.942Z,1008.72
2018-06-25T05:19:06.962Z,1008.73
2018-06-25T05:20:06.983Z,1008.72
2018-06-25T05:21:07.000Z,1008.75
2018-06-25T05:22:07.020Z,1008.78
2018-06-25T05:23:07.042Z,1008.8
2018-06-25T05:24:07.059Z,1008.82
2018-06-25T05:25:07.080Z,1008.84
2018-06-25T05:26:07.100Z,1008.86
2018-06-25T05:27:07.119Z,1008.86
2018-06-25T05:28:07.139Z,1008.87
2018-06-25T05:29:07.195Z,1008.89
2018-06-25T05:30:07.180Z,1008.92
2018-06-25T05:31:07.198Z,1008.93
2018-06-25T05:32:07.217Z,1008.94
2018-06-25T05:33:07.237Z,1008.98
2018-06-25T05:34:07.260Z,1008.93
2018-06-25T05:35:07.275Z,1008.97
2018-06-25T05:36:07.295Z,1008.97
2018-06-25T05:37:07.316Z,1008.98
2018-06-25T05:38:07.335Z,1008.97
2018-06-25T05:39:07.355Z,1008.97
2018-06-25T05:40:07.376Z,1009.01
2018-06-25T05:41:07.394Z,1009.01
2018-06-25T05:42:07.416Z,1009
2018-06-25T05:43:07.435Z,1008.99
2018-06-25T05:44:07.453Z,1008.98
2018-06-25T05:45:07.475Z,1009.02
2018-06-25T05:46:07.493Z,1009.03
2018-06-25T05:47:07.513Z,1009.05
2018-06-25T05:48:07.533Z,1009.04
2018-06-25T05:49:07.553Z,1009.03
2018-06-25T05:50:07.572Z,1009.06
2018-06-25T05:51:07.591Z,1009.11
2018-06-25T05:52:07.611Z,1009.12
2018-06-25T05:53:07.633Z,1009.15
2018-06-25T05:54:07.651Z,1009.12
2018-06-25T05:55:07.671Z,1009.13
2018-06-25T05:56:07.691Z,1009.12
2018-06-25T05:57:07.710Z,1009.14
2018-06-25T05:58:07.730Z,1009.14
2018-06-25T05:59:07.751Z,1009.17
2018-06-25T06:00:07.770Z,1009.17
2018-06-25T06:01:07.790Z,1009.18
2018-06-25T06:02:07.810Z,1009.16
2018-06-25T06:03:07.829Z,1009.14
2018-06-25T06:04:07.953Z,1009.22
2018-06-25T06:05:07.870Z,1009.2
2018-06-25T06:06:07.892Z,1009.18
2018-06-25T06:07:07.914Z,1009.2
2018-06-25T06:08:07.928Z,1009.19
2018-06-25T06:09:07.956Z,1009.18
2018-06-25T06:10:07.972Z,1009.16
2018-06-25T06:11:07.989Z,1009.17
2018-06-25T06:12:08.009Z,1009.15
2018-06-25T06:13:08.036Z,1009.17
2018-06-25T06:14:08.149Z,1009.2
2018-06-25T06:15:08.075Z,1009.19
2018-06-25T06:16:08.089Z,1009.2
2018-06-25T06:17:08.111Z,1009.26
2018-06-25T06:18:08.129Z,1009.28
2018-06-25T06:19:08.148Z,1009.23
2018-06-25T06:20:08.168Z,1009.27
2018-06-25T06:21:08.190Z,1009.24
2018-06-25T06:22:08.210Z,1009.27
2018-06-25T06:23:08.229Z,1009.23
2018-06-25T06:24:08.249Z,1009.26
2018-06-25T06:25:08.275Z,1009.28
2018-06-25T06:26:08.290Z,1009.23
2018-06-25T06:27:08.310Z,1009.23
2018-06-25T06:28:08.331Z,1009.23
2018-06-25T06:29:08.355Z,1009.27
2018-06-25T06:30:08.372Z,1009.27
2018-06-25T06:31:08.391Z,1009.27
2018-06-25T06:32:08.561Z,1009.27
2018-06-25T06:33:08.435Z,1009.27
2018-06-25T06:34:08.449Z,1009.24
2018-06-25T06:35:08.471Z,1009.23
2018-06-25T06:36:08.492Z,1009.22
2018-06-25T06:37:08.511Z,1009.24
2018-06-25T06:38:08.531Z,1009.23
2018-06-25T06:39:08.553Z,1009.3
2018-06-25T06:40:08.659Z,1009.27
2018-06-25T06:41:08.592Z,1009.31
2018-06-25T06:42:08.647Z,1009.29
2018-06-25T06:43:08.634Z,1009.33
2018-06-25T06:44:08.654Z,1009.36
2018-06-25T06:45:08.680Z,1009.36
2018-06-25T06:46:08.695Z,1009.36
2018-06-25T06:47:08.714Z,1009.37
2018-06-25T06:48:08.734Z,1009.37
2018-06-25T06:49:08.755Z,1009.37
2018-06-25T06:50:08.777Z,1009.38
2018-06-25T06:51:08.798Z,1009.34
2018-06-25T06:52:08.816Z,1009.38
2018-06-25T06:53:08.838Z,1009.35
2018-06-25T06:54:08.857Z,1009.37
2018-06-25T06:55:08.879Z,1009.39
2018-06-25T06:56:08.897Z,1009.38
2018-06-25T06:57:08.920Z,1009.41
2018-06-25T06:58:08.941Z,1009.42
2018-06-25T06:59:08.959Z,1009.42
2018-06-25T07:00:08.979Z,1009.39
2018-06-25T07:01:09.004Z,1009.43
2018-06-25T07:02:09.023Z,1009.37
2018-06-25T07:03:09.043Z,1009.34
2018-06-25T07:04:09.066Z,1009.33
2018-06-25T07:05:09.082Z,1009.35
2018-06-25T07:06:09.105Z,1009.38
2018-06-25T07:07:09.124Z,1009.36
2018-06-25T07:08:09.147Z,1009.4
2018-06-25T07:09:09.166Z,1009.37
2018-06-25T07:10:09.187Z,1009.35
2018-06-25T07:11:09.214Z,1009.33
2018-06-25T07:12:09.227Z,1009.39
2018-06-25T07:13:09.253Z,1009.35
2018-06-25T07:14:09.270Z,1009.32
2018-06-25T07:15:09.290Z,1009.34
2018-06-25T07:16:09.311Z,1009.34
2018-06-25T07:17:09.332Z,1009.34
2018-06-25T07:18:09.352Z,1009.32
2018-06-25T07:19:09.377Z,1009.36
2018-06-25T07:20:09.394Z,1009.35
2018-06-25T07:21:09.414Z,1009.36
2018-06-25T07:22:09.436Z,1009.35
2018-06-25T07:23:09.457Z,1009.38
2018-06-25T07:24:09.478Z,1009.38
2018-06-25T07:25:09.500Z,1009.4
2018-06-25T07:26:09.519Z,1009.38
2018-06-25T07:27:09.544Z,1009.4
2018-06-25T07:28:09.560Z,1009.4
2018-06-25T07:29:09.594Z,1009.45
2018-06-25T07:30:09.602Z,1009.43
2018-06-25T07:31:09.623Z,1009.41
2018-06-25T07:32:09.643Z,1009.41
2018-06-25T07:33:09.665Z,1009.43
2018-06-25T07:34:09.687Z,1009.43
2018-06-25T07:35:09.709Z,1009.5
2018-06-25T07:36:09.728Z,1009.51
2018-06-25T07:37:09.749Z,1009.54
2018-06-25T07:38:09.776Z,1009.55
2018-06-25T07:39:09.791Z,1009.57
2018-06-25T07:40:09.812Z,1009.53
2018-06-25T07:41:09.833Z,1009.53
2018-06-25T07:42:09.858Z,1009.57
2018-06-25T07:43:09.886Z,1009.59
2018-06-25T07:44:09.896Z,1009.62
2018-06-25T07:45:09.918Z,1009.56
2018-06-25T07:46:09.940Z,1009.54
2018-06-25T07:47:10.033Z,1009.55
2018-06-25T07:48:09.980Z,1009.55
2018-06-25T07:49:10.006Z,1009.58
2018-06-25T07:50:10.024Z,1009.58
2018-06-25T07:51:10.048Z,1009.57
2018-06-25T07:52:10.066Z,1009.58
2018-06-25T07:53:10.108Z,1009.58
2018-06-25T07:54:10.108Z,1009.58
2018-06-25T07:55:10.128Z,1009.53
2018-06-25T07:56:10.155Z,1009.53
2018-06-25T07:57:10.173Z,1009.54
2018-06-25T07:58:10.193Z,1009.56
2018-06-25T07:59:10.215Z,1009.56
2018-06-25T08:00:10.238Z,1009.57
2018-06-25T08:01:10.258Z,1009.6
2018-06-25T08:02:10.280Z,1009.59
2018-06-25T08:03:10.303Z,1009.58
2018-06-25T08:04:10.324Z,1009.61
2018-06-25T08:05:10.345Z,1009.64
2018-06-25T08:06:10.365Z,1009.62
2018-06-25T08:07:10.389Z,1009.66
2018-06-25T08:08:10.414Z,1009.66
2018-06-25T08:09:10.441Z,1009.66
2018-06-25T08:10:10.528Z,1009.67
2018-06-25T08:11:10.476Z,1009.67
2018-06-25T08:12:10.496Z,1009.69
2018-06-25T08:13:10.517Z,1009.66
2018-06-25T08:14:10.539Z,1009.72
2018-06-25T08:15:10.562Z,1009.69
2018-06-25T08:16:10.589Z,1009.69
2018-06-25T08:17:10.604Z,1009.7
2018-06-25T08:18:10.627Z,1009.69
2018-06-25T08:19:10.654Z,1009.71
2018-06-25T08:20:10.673Z,1009.72
2018-06-25T08:21:10.692Z,1009.71
2018-06-25T08:22:10.714Z,1009.73
2018-06-25T08:23:10.735Z,1009.73
2018-06-25T08:24:10.756Z,1009.73
2018-06-25T08:25:10.781Z,1009.75
2018-06-25T08:26:10.800Z,1009.74
2018-06-25T08:27:10.823Z,1009.73
2018-06-25T08:28:10.844Z,1009.75
2018-06-25T08:29:10.866Z,1009.78
2018-06-25T08:30:10.961Z,1009.79
2018-06-25T08:31:10.911Z,1009.72
2018-06-25T08:32:10.935Z,1009.78
2018-06-25T08:33:10.954Z,1009.76
2018-06-25T08:34:11.016Z,1009.78
2018-06-25T08:35:11.001Z,1009.74
2018-06-25T08:36:11.020Z,1009.74
2018-06-25T08:37:11.042Z,1009.71
2018-06-25T08:38:11.062Z,1009.73
2018-06-25T08:39:11.088Z,1009.74
2018-06-25T08:40:11.143Z,1009.73
2018-06-25T08:41:11.130Z,1009.79
2018-06-25T08:42:11.153Z,1009.82
2018-06-25T08:43:11.175Z,1009.81
2018-06-25T08:44:11.197Z,1009.82
2018-06-25T08:45:11.223Z,1009.84
2018-06-25T08:46:11.241Z,1009.83
2018-06-25T08:47:11.265Z,1009.84
2018-06-25T08:48:11.289Z,1009.86
2018-06-25T08:49:11.309Z,1009.84
2018-06-25T08:50:11.336Z,1009.84
2018-06-25T08:51:11.354Z,1009.83
2018-06-25T08:52:11.376Z,1009.9
2018-06-25T08:53:11.398Z,1009.83
2018-06-25T08:54:11.436Z,1009.91
2018-06-25T08:55:11.444Z,1009.92
2018-06-25T08:56:11.472Z,1009.96
2018-06-25T08:57:11.489Z,1009.93
2018-06-25T08:58:11.521Z,1009.95
2018-06-25T08:59:11.533Z,1009.94
2018-06-25T09:00:11.556Z,1009.92
2018-06-25T09:01:11.578Z,1009.93
2018-06-25T09:02:11.600Z,1009.91
2018-06-25T09:03:11.709Z,1009.93
2018-06-25T09:04:11.646Z,1009.95
2018-06-25T09:05:11.721Z,1009.92
2018-06-25T09:06:11.693Z,1009.9
2018-06-25T09:07:11.715Z,1009.93
2018-06-25T09:08:11.737Z,1009.92
2018-06-25T09:09:11.761Z,1009.9
2018-06-25T09:10:11.785Z,1009.9
2018-06-25T09:11:11.806Z,1009.93
2018-06-25T09:12:11.828Z,1009.9
2018-06-25T09:13:11.850Z,1009.92
2018-06-25T09:14:11.873Z,1009.93
2018-06-25T09:15:12.013Z,1009.92
2018-06-25T09:16:11.920Z,1009.91
2018-06-25T09:17:11.942Z,1009.9
2018-06-25T09:18:11.964Z,1009.87
2018-06-25T09:19:11.988Z,1009.91
2018-06-25T09:20:12.012Z,1009.9
2018-06-25T09:21:12.035Z,1009.9
2018-06-25T09:22:12.152Z,1009.88
2018-06-25T09:23:12.080Z,1009.83
2018-06-25T09:24:12.103Z,1009.9
2018-06-25T09:25:12.128Z,1009.87
2018-06-25T09:26:12.148Z,1009.82
2018-06-25T09:27:12.172Z,1009.82
2018-06-25T09:28:12.196Z,1009.86
2018-06-25T09:29:12.221Z,1009.85
2018-06-25T09:30:12.240Z,1009.9
2018-06-25T09:31:12.263Z,1009.9
2018-06-25T09:32:12.287Z,1009.93
2018-06-25T09:33:12.321Z,1009.94
2018-06-25T09:34:12.333Z,1009.97
2018-06-25T09:35:12.374Z,1009.92
2018-06-25T09:36:12.383Z,1009.95
2018-06-25T09:37:12.404Z,1009.98
2018-06-25T09:38:12.428Z,1009.93
2018-06-25T09:39:12.450Z,1009.95
2018-06-25T09:40:12.472Z,1009.97
2018-06-25T09:41:12.601Z,1009.96
2018-06-25T09:42:12.520Z,1009.97
2018-06-25T09:43:12.545Z,1009.99
2018-06-25T09:44:12.567Z,1010.04
2018-06-25T09:45:12.594Z,1010.05
2018-06-25T09:46:12.613Z,1010.05
2018-06-25T09:47:12.637Z,1010.03
2018-06-25T09:48:12.660Z,1010.03
2018-06-25T09:49:12.684Z,1010.04
2018-06-25T09:50:12.708Z,1010.07
2018-06-25T09:51:12.731Z,1010.05
2018-06-25T09:52:12.754Z,1010.08
2018-06-25T09:53:12.778Z,1010.11
2018-06-25T09:54:12.805Z,1010.09
2018-06-25T09:55:12.938Z,1010.09
2018-06-25T09:56:12.850Z,1010.11
2018-06-25T09:57:12.874Z,1010.03
2018-06-25T09:58:12.896Z,1010.05
2018-06-25T09:59:12.930Z,1010.08
2018-06-25T10:00:12.944Z,1010.02
2018-06-25T10:01:12.970Z,1010.07
2018-06-25T10:02:12.993Z,1010.06
2018-06-25T10:03:13.016Z,1010.02
2018-06-25T10:04:13.041Z,1010.07
2018-06-25T10:05:13.067Z,1010.04
2018-06-25T10:06:13.088Z,1010.02
2018-06-25T10:07:13.121Z,1010.08
2018-06-25T10:08:13.137Z,1010.06
2018-06-25T10:09:13.163Z,1010.08
2018-06-25T10:10:13.184Z,1010.06
2018-06-25T10:11:13.209Z,1010.02
2018-06-25T10:12:13.233Z,1010.03
2018-06-25T10:13:13.256Z,1010.03
2018-06-25T10:14:13.281Z,1010.09
2018-06-25T10:15:13.308Z,1010.05
2018-06-25T10:16:13.330Z,1010.03
2018-06-25T10:17:13.354Z,1010.04
2018-06-25T10:18:13.378Z,1010
2018-06-25T10:19:13.405Z,1010.01
2018-06-25T10:20:13.428Z,1009.98
2018-06-25T10:21:13.484Z,1010
2018-06-25T10:22:13.475Z,1010.02
2018-06-25T10:23:13.502Z,1009.99
2018-06-25T10:24:13.525Z,1010.03
2018-06-25T10:25:13.550Z,1010.02
2018-06-25T10:26:13.575Z,1010.06
2018-06-25T10:27:13.600Z,1010.04
2018-06-25T10:28:13.626Z,1010.07
2018-06-25T10:29:13.649Z,1010.09
2018-06-25T10:30:13.674Z,1010.07
2018-06-25T10:31:13.698Z,1010.07
2018-06-25T10:32:13.726Z,1010.04
2018-06-25T10:33:13.747Z,1010.06
2018-06-25T10:34:13.773Z,1010.04
2018-06-25T10:35:13.801Z,1010.05
2018-06-25T10:36:13.823Z,1010.01
2018-06-25T10:37:13.848Z,1010.03
2018-06-25T10:38:13.877Z,1010.05
2018-06-25T10:39:13.897Z,1010.02
2018-06-25T10:40:13.924Z,1010.01
2018-06-25T10:41:13.949Z,1010.05
2018-06-25T10:42:14.045Z,1010.06
2018-06-25T10:43:13.999Z,1010.05
2018-06-25T10:44:14.024Z,1010.03
2018-06-25T10:45:14.050Z,1010.07
2018-06-25T10:46:14.075Z,1010.06
2018-06-25T10:47:14.101Z,1010.09
2018-06-25T10:48:14.127Z,1010.1
2018-06-25T10:49:14.155Z,1010.1
2018-06-25T10:50:14.179Z,1010.13
2018-06-25T10:51:14.208Z,1010.07
2018-06-25T10:52:14.230Z,1010.09
2018-06-25T10:53:14.255Z,1010.03
2018-06-25T10:54:14.281Z,1010.02
2018-06-25T10:55:14.308Z,1010.01
2018-06-25T10:56:14.334Z,1009.99
2018-06-25T10:57:14.360Z,1009.98
2018-06-25T10:58:14.386Z,1010.05
2018-06-25T10:59:14.410Z,1010
2018-06-25T11:00:14.741Z,1010.03
2018-06-25T11:01:14.496Z,1009.97
2018-06-25T11:02:14.493Z,1010.01
2018-06-25T11:03:14.517Z,1009.98
2018-06-25T11:04:14.544Z,1010
2018-06-25T11:05:14.569Z,1010.02
2018-06-25T11:06:14.595Z,1010.03
2018-06-25T11:07:14.738Z,1010.03
2018-06-25T11:08:14.652Z,1010.03
2018-06-25T11:09:14.675Z,1009.98
2018-06-25T11:10:14.701Z,1009.99
2018-06-25T11:11:14.727Z,1009.97
2018-06-25T11:12:14.756Z,1009.97
2018-06-25T11:13:14.782Z,1009.96
2018-06-25T11:14:14.809Z,1009.94
2018-06-25T11:15:14.835Z,1009.97
2018-06-25T11:16:14.862Z,1009.97
2018-06-25T11:17:14.889Z,1009.97
2018-06-25T11:18:14.917Z,1009.95
2018-06-25T11:19:14.943Z,1009.95
2018-06-25T11:20:14.969Z,1009.96
2018-06-25T11:21:14.997Z,1009.97
2018-06-25T11:22:15.025Z,1009.96
2018-06-25T11:23:15.051Z,1009.98
2018-06-25T11:24:15.078Z,1009.96
2018-06-25T11:25:15.105Z,1010.01
2018-06-25T11:26:15.131Z,1009.98
2018-06-25T11:27:15.183Z,1009.99
2018-06-25T11:28:15.187Z,1009.96
2018-06-25T11:29:15.213Z,1009.99
2018-06-25T11:30:15.239Z,1009.97
2018-06-25T11:31:15.267Z,1009.99
2018-06-25T11:32:15.295Z,1010.01
2018-06-25T11:33:15.323Z,1009.98
2018-06-25T11:34:15.349Z,1009.99
2018-06-25T11:35:15.378Z,1009.98
2018-06-25T11:36:15.405Z,1009.97
2018-06-25T11:37:15.431Z,1009.93
2018-06-25T11:38:15.465Z,1009.93
2018-06-25T11:39:15.488Z,1009.96
2018-06-25T11:40:15.523Z,1009.91
2018-06-25T11:41:15.543Z,1009.93
2018-06-25T11:42:15.571Z,1009.89
2018-06-25T11:43:15.599Z,1009.87
2018-06-25T11:44:15.626Z,1009.83
2018-06-25T11:45:15.654Z,1009.84
2018-06-25T11:46:15.686Z,1009.84
2018-06-25T11:47:15.711Z,1009.87
2018-06-25T11:48:15.738Z,1009.84
2018-06-25T11:49:15.767Z,1009.83
2018-06-25T11:50:15.796Z,1009.83
2018-06-25T11:51:15.826Z,1009.8
2018-06-25T11:52:15.857Z,1009.82
2018-06-25T11:53:15.887Z,1009.79
2018-06-25T11:54:15.908Z,1009.81
2018-06-25T11:55:15.937Z,1009.78
2018-06-25T11:56:15.965Z,1009.79
2018-06-25T11:57:16.001Z,1009.83
2018-06-25T11:58:16.022Z,1009.84
2018-06-25T11:59:16.049Z,1009.83
2018-06-25T12:00:16.081Z,1009.75
2018-06-25T12:01:16.106Z,1009.81
2018-06-25T12:02:16.137Z,1009.84
2018-06-25T12:03:16.407Z,1009.84
2018-06-25T12:04:16.193Z,1009.84
2018-06-25T12:05:16.222Z,1009.8
2018-06-25T12:06:16.251Z,1009.75
2018-06-25T12:07:16.308Z,1009.79
2018-06-25T12:08:16.311Z,1009.78